createdAt,value
2016-06-09T00:00:22.267Z,0
2016-06-09T00:01:22.255Z,0
2016-06-09T00:02:22.242Z,0
2016-06-09T00:03:22.073Z,0
2016-06-09T00:04:22.170Z,0
2016-06-09T00:05:22.158Z,0
2016-06-09T00:06:22.129Z,0
2016-06-09T00:07:22.101Z,0
2016-06-09T00:08:22.105Z,0
2016-06-09T00:09:22.076Z,0
2016-06-09T00:10:22.064Z,0
2016-06-09T00:11:22.019Z,0
2016-06-09T00:12:22.007Z,0
2016-06-09T00:13:21.978Z,0
2016-06-09T00:14:21.981Z,0
2016-06-09T00:15:21.953Z,0
2016-06-09T00:16:21.909Z,0
2016-06-09T00:17:21.898Z,0
2016-06-09T00:18:22.009Z,0
2016-06-09T00:19:21.857Z,0
2016-06-09T00:20:21.672Z,0
2016-06-09T00:21:21.832Z,0
2016-06-09T00:22:21.788Z,0
2016-06-09T00:23:21.792Z,0
2016-06-09T00:24:21.762Z,0
2016-06-09T00:25:21.719Z,0
2016-06-09T00:26:21.707Z,0
2016-06-09T00:27:21.679Z,0
2016-06-09T00:28:21.666Z,0
2016-06-09T00:29:21.637Z,0
2016-06-09T00:30:21.610Z,0
2016-06-09T00:31:21.581Z,0
2016-06-09T00:32:21.569Z,0
2016-06-09T00:33:22.415Z,0
2016-06-09T00:34:21.965Z,0
2016-06-09T00:35:21.516Z,0
2016-06-09T00:36:21.471Z,0
2016-06-09T00:37:21.474Z,0
2016-06-09T00:38:21.431Z,0
2016-06-09T00:39:21.277Z,0
2016-06-09T00:40:21.390Z,0
2016-06-09T00:41:21.362Z,0
2016-06-09T00:42:21.365Z,0
2016-06-09T00:43:21.336Z,0
2016-06-09T00:44:21.309Z,0
2016-06-09T00:45:21.280Z,0
2016-06-09T00:46:21.252Z,0
2016-06-09T00:47:21.240Z,0
2016-06-09T00:48:21.227Z,0
2016-06-09T00:49:21.074Z,0
2016-06-09T00:50:21.171Z,0
2016-06-09T00:51:21.143Z,0
2016-06-09T00:52:21.130Z,0
2016-06-09T00:53:20.946Z,0
2016-06-09T00:54:20.949Z,0
2016-06-09T00:55:21.045Z,0
2016-06-09T00:56:21.032Z,0
2016-06-09T00:57:20.896Z,0
2016-06-09T00:58:20.992Z,0
2016-06-09T00:59:20.980Z,0
2016-06-09T01:00:20.983Z,0
2016-06-09T01:01:20.923Z,0
2016-06-09T01:02:20.895Z,0
2016-06-09T01:03:20.945Z,0
2016-06-09T01:04:21.807Z,0
2016-06-09T01:05:20.843Z,0
2016-06-09T01:06:20.829Z,0
2016-06-09T01:07:20.801Z,0
2016-06-09T01:08:20.772Z,0
2016-06-09T01:09:20.761Z,0
2016-06-09T01:10:20.717Z,0
2016-06-09T01:11:20.720Z,0
2016-06-09T01:12:20.692Z,0
2016-06-09T01:13:20.663Z,0
2016-06-09T01:14:20.635Z,0
2016-06-09T01:15:20.623Z,0
2016-06-09T01:16:20.594Z,0
2016-06-09T01:17:20.410Z,0
2016-06-09T01:18:20.601Z,0
2016-06-09T01:19:22.228Z,0
2016-06-09T01:20:20.528Z,0
2016-06-09T01:21:20.485Z,0
2016-06-09T01:22:20.457Z,0
2016-06-09T01:23:20.443Z,0
2016-06-09T01:24:20.416Z,0
2016-06-09T01:25:20.404Z,0
2016-06-09T01:26:20.219Z,0
2016-06-09T01:27:20.346Z,0
2016-06-09T01:28:20.319Z,0
2016-06-09T01:29:20.323Z,0
2016-06-09T01:30:20.122Z,0
2016-06-09T01:31:20.265Z,0
2016-06-09T01:32:20.253Z,0
2016-06-09T01:33:20.225Z,0
2016-06-09T01:34:20.509Z,0
2016-06-09T01:35:20.168Z,0
2016-06-09T01:36:20.156Z,0
2016-06-09T01:37:20.127Z,0
2016-06-09T01:38:20.115Z,0
2016-06-09T01:39:20.072Z,0
2016-06-09T01:40:20.059Z,0
2016-06-09T01:41:20.031Z,0
2016-06-09T01:42:20.034Z,0
2016-06-09T01:43:19.990Z,0
2016-06-09T01:44:19.977Z,0
2016-06-09T01:45:19.950Z,0
2016-06-09T01:46:19.921Z,0
2016-06-09T01:47:19.753Z,0
2016-06-09T01:48:21.146Z,0
2016-06-09T01:49:21.228Z,0
2016-06-09T01:50:19.821Z,0
2016-06-09T01:51:19.824Z,0
2016-06-09T01:52:19.624Z,0
2016-06-09T01:53:19.768Z,0
2016-06-09T01:54:19.740Z,0
2016-06-09T01:55:19.570Z,0
2016-06-09T01:56:19.699Z,0
2016-06-09T01:57:19.670Z,0
2016-06-09T01:58:19.642Z,0
2016-06-09T01:59:19.661Z,0
2016-06-09T02:00:19.618Z,0
2016-06-09T02:01:19.432Z,0
2016-06-09T02:02:19.560Z,0
2016-06-09T02:03:19.533Z,0
2016-06-09T02:04:19.708Z,0
2016-06-09T02:05:19.492Z,0
2016-06-09T02:06:19.464Z,0
2016-06-09T02:07:19.451Z,0
2016-06-09T02:08:19.439Z,0
2016-06-09T02:09:19.411Z,0
2016-06-09T02:10:19.382Z,0
2016-06-09T02:11:19.354Z,0
2016-06-09T02:12:19.326Z,0
2016-06-09T02:13:19.298Z,0
2016-06-09T02:14:19.286Z,0
2016-06-09T02:15:19.272Z,0
2016-06-09T02:16:19.245Z,0
2016-06-09T02:17:19.232Z,0
2016-06-09T02:18:19.189Z,0
2016-06-09T02:19:20.144Z,0
2016-06-09T02:20:19.148Z,0
2016-06-09T02:21:19.135Z,0
2016-06-09T02:22:19.106Z,0
2016-06-09T02:23:19.094Z,0
2016-06-09T02:24:19.082Z,0
2016-06-09T02:25:19.038Z,0
2016-06-09T02:26:19.009Z,0
2016-06-09T02:27:18.997Z,0
2016-06-09T02:28:18.969Z,0
2016-06-09T02:29:18.957Z,0
2016-06-09T02:30:18.929Z,0
2016-06-09T02:31:18.900Z,0
2016-06-09T02:32:18.872Z,0
2016-06-09T02:33:18.860Z,0
2016-06-09T02:34:19.706Z,0
2016-06-09T02:35:18.819Z,0
2016-06-09T02:36:18.790Z,0
2016-06-09T02:37:18.778Z,0
2016-06-09T02:38:18.765Z,0
2016-06-09T02:39:18.722Z,0
2016-06-09T02:40:18.709Z,0
2016-06-09T02:41:18.680Z,0
2016-06-09T02:42:18.669Z,0
2016-06-09T02:43:18.656Z,0
2016-06-09T02:44:18.455Z,0
2016-06-09T02:45:18.600Z,0
2016-06-09T02:46:18.570Z,0
2016-06-09T02:47:18.559Z,0
2016-06-09T02:48:18.531Z,0
2016-06-09T02:49:18.548Z,0
2016-06-09T02:50:18.505Z,0
2016-06-09T02:51:18.461Z,0
2016-06-09T02:52:18.449Z,0
2016-06-09T02:53:18.452Z,0
2016-06-09T02:54:18.392Z,0
2016-06-09T02:55:18.395Z,0
2016-06-09T02:56:18.352Z,0
2016-06-09T02:57:18.339Z,0
2016-06-09T02:58:18.326Z,0
2016-06-09T02:59:18.283Z,0
2016-06-09T03:00:18.255Z,0
2016-06-09T03:01:18.241Z,0
2016-06-09T03:02:18.245Z,0
2016-06-09T03:03:18.202Z,0
2016-06-09T03:04:18.814Z,0
2016-06-09T03:05:18.161Z,0
2016-06-09T03:06:18.149Z,0
2016-06-09T03:07:18.120Z,0
2016-06-09T03:08:18.092Z,0
2016-06-09T03:09:18.080Z,0
2016-06-09T03:10:18.067Z,0
2016-06-09T03:11:18.038Z,0
2016-06-09T03:12:17.855Z,0
2016-06-09T03:13:17.967Z,0
2016-06-09T03:14:17.986Z,0
2016-06-09T03:15:17.925Z,0
2016-06-09T03:16:17.929Z,0
2016-06-09T03:17:17.901Z,0
2016-06-09T03:18:17.716Z,0
2016-06-09T03:19:17.563Z,0
2016-06-09T03:20:17.675Z,0
2016-06-09T03:21:17.803Z,0
2016-06-09T03:22:17.619Z,0
2016-06-09T03:23:17.763Z,0
2016-06-09T03:24:17.734Z,0
2016-06-09T03:25:17.722Z,0
2016-06-09T03:26:17.694Z,0
2016-06-09T03:27:17.682Z,0
2016-06-09T03:28:17.653Z,0
2016-06-09T03:29:17.625Z,0
2016-06-09T03:30:17.613Z,0
2016-06-09T03:31:17.584Z,5
2016-06-09T03:32:17.572Z,5
2016-06-09T03:33:17.545Z,5
2016-06-09T03:34:17.531Z,5
2016-06-09T03:35:17.503Z,5
2016-06-09T03:36:17.475Z,5
2016-06-09T03:37:17.447Z,5
2016-06-09T03:38:17.449Z,5
2016-06-09T03:39:17.406Z,5
2016-06-09T03:40:17.394Z,5
2016-06-09T03:41:17.365Z,5
2016-06-09T03:42:17.336Z,5
2016-06-09T03:43:17.325Z,5
2016-06-09T03:44:17.140Z,5
2016-06-09T03:45:17.268Z,5
2016-06-09T03:46:17.255Z,5
2016-06-09T03:47:17.258Z,5
2016-06-09T03:48:17.230Z,5
2016-06-09T03:49:18.093Z,5
2016-06-09T03:50:17.784Z,5
2016-06-09T03:51:17.161Z,5
2016-06-09T03:52:16.977Z,5
2016-06-09T03:53:17.121Z,5
2016-06-09T03:54:16.921Z,5
2016-06-09T03:55:17.064Z,10
2016-06-09T03:56:17.036Z,10
2016-06-09T03:57:16.993Z,10
2016-06-09T03:58:16.839Z,15
2016-06-09T03:59:16.967Z,20
2016-06-09T04:00:16.955Z,20
2016-06-09T04:01:16.770Z,20
2016-06-09T04:02:16.898Z,20
2016-06-09T04:03:16.871Z,20
2016-06-09T04:04:17.624Z,20
2016-06-09T04:05:16.688Z,20
2016-06-09T04:06:16.802Z,20
2016-06-09T04:07:16.649Z,25
2016-06-09T04:08:16.761Z,25
2016-06-09T04:09:16.435Z,25
2016-06-09T04:10:16.720Z,25
2016-06-09T04:11:16.723Z,30
2016-06-09T04:12:16.679Z,35
2016-06-09T04:13:16.667Z,35
2016-06-09T04:14:16.623Z,35
2016-06-09T04:15:16.626Z,35
2016-06-09T04:16:16.598Z,30
2016-06-09T04:17:16.570Z,30
2016-06-09T04:18:16.541Z,30
2016-06-09T04:19:17.919Z,30
2016-06-09T04:20:16.360Z,35
2016-06-09T04:21:16.488Z,35
2016-06-09T04:22:16.459Z,40
2016-06-09T04:23:16.448Z,45
2016-06-09T04:24:16.435Z,40
2016-06-09T04:25:16.250Z,40
2016-06-09T04:26:16.378Z,45
2016-06-09T04:27:16.350Z,50
2016-06-09T04:28:16.369Z,70
2016-06-09T04:29:16.325Z,90
2016-06-09T04:30:16.298Z,80
2016-06-09T04:31:16.254Z,70
2016-06-09T04:32:16.257Z,65
2016-06-09T04:33:16.228Z,65
2016-06-09T04:34:16.466Z,65
2016-06-09T04:35:16.547Z,70
2016-06-09T04:36:16.158Z,75
2016-06-09T04:37:15.991Z,80
2016-06-09T04:38:16.119Z,80
2016-06-09T04:39:16.090Z,85
2016-06-09T04:40:16.078Z,95
2016-06-09T04:41:16.049Z,115
2016-06-09T04:42:15.865Z,115
2016-06-09T04:43:15.852Z,110
2016-06-09T04:44:15.997Z,105
2016-06-09T04:45:15.968Z,95
2016-06-09T04:46:15.939Z,90
2016-06-09T04:47:15.928Z,80
2016-06-09T04:48:15.900Z,75
2016-06-09T04:49:16.089Z,80
2016-06-09T04:50:15.890Z,80
2016-06-09T04:51:15.830Z,80
2016-06-09T04:52:15.818Z,80
2016-06-09T04:53:15.790Z,85
2016-06-09T04:54:15.777Z,85
2016-06-09T04:55:15.764Z,80
2016-06-09T04:56:15.580Z,75
2016-06-09T04:57:15.723Z,75
2016-06-09T04:58:15.681Z,75
2016-06-09T04:59:15.684Z,75
2016-06-09T05:00:15.654Z,70
2016-06-09T05:01:15.627Z,65
2016-06-09T05:02:15.458Z,65
2016-06-09T05:03:15.446Z,70
2016-06-09T05:04:16.027Z,65
2016-06-09T05:05:15.435Z,70
2016-06-09T05:06:15.517Z,70
2016-06-09T05:07:15.504Z,70
2016-06-09T05:08:15.476Z,75
2016-06-09T05:09:15.465Z,80
2016-06-09T05:10:15.435Z,85
2016-06-09T05:11:15.438Z,80
2016-06-09T05:12:15.395Z,85
2016-06-09T05:13:15.383Z,90
2016-06-09T05:14:15.369Z,95
2016-06-09T05:15:15.045Z,75
2016-06-09T05:16:15.157Z,75
2016-06-09T05:17:15.285Z,75
2016-06-09T05:18:15.273Z,70
2016-06-09T05:19:15.245Z,65
2016-06-09T05:20:15.966Z,60
2016-06-09T05:21:15.204Z,60
2016-06-09T05:22:15.175Z,55
2016-06-09T05:23:15.178Z,55
2016-06-09T05:24:15.150Z,55
2016-06-09T05:25:15.122Z,55
2016-06-09T05:26:15.095Z,50
2016-06-09T05:27:15.066Z,50
2016-06-09T05:28:15.054Z,50
2016-06-09T05:29:15.025Z,50
2016-06-09T05:30:15.013Z,50
2016-06-09T05:31:15.000Z,50
2016-06-09T05:32:14.972Z,55
2016-06-09T05:33:14.959Z,60
2016-06-09T05:34:14.978Z,60
2016-06-09T05:35:14.919Z,60
2016-06-09T05:36:14.876Z,55
2016-06-09T05:37:14.862Z,55
2016-06-09T05:38:14.849Z,55
2016-06-09T05:39:14.821Z,55
2016-06-09T05:40:14.810Z,50
2016-06-09T05:41:14.781Z,50
2016-06-09T05:42:14.769Z,50
2016-06-09T05:43:14.740Z,50
2016-06-09T05:44:14.711Z,55
2016-06-09T05:45:14.700Z,55
2016-06-09T05:46:14.670Z,55
2016-06-09T05:47:14.659Z,55
2016-06-09T05:48:14.630Z,60
2016-06-09T05:49:14.602Z,60
2016-06-09T05:50:14.746Z,55
2016-06-09T05:51:14.561Z,55
2016-06-09T05:52:14.564Z,60
2016-06-09T05:53:14.536Z,65
2016-06-09T05:54:14.352Z,60
2016-06-09T05:55:14.481Z,60
2016-06-09T05:56:14.452Z,65
2016-06-09T05:57:14.439Z,65
2016-06-09T05:58:14.411Z,65
2016-06-09T05:59:14.399Z,70
2016-06-09T06:00:14.371Z,70
2016-06-09T06:01:14.358Z,70
2016-06-09T06:02:14.331Z,70
2016-06-09T06:03:14.301Z,70
2016-06-09T06:04:14.290Z,70
2016-06-09T06:05:14.479Z,75
2016-06-09T06:06:14.232Z,80
2016-06-09T06:07:14.220Z,85
2016-06-09T06:08:14.191Z,90
2016-06-09T06:09:14.179Z,95
2016-06-09T06:10:14.152Z,105
2016-06-09T06:11:14.139Z,105
2016-06-09T06:12:14.126Z,105
2016-06-09T06:13:13.942Z,100
2016-06-09T06:14:14.070Z,90
2016-06-09T06:15:14.042Z,85
2016-06-09T06:16:14.029Z,85
2016-06-09T06:17:14.001Z,85
2016-06-09T06:18:14.004Z,90
2016-06-09T06:19:13.976Z,95
2016-06-09T06:20:14.370Z,95
2016-06-09T06:21:13.936Z,90
2016-06-09T06:22:13.907Z,85
2016-06-09T06:23:13.879Z,80
2016-06-09T06:24:13.866Z,85
2016-06-09T06:25:13.838Z,85
2016-06-09T06:26:13.669Z,95
2016-06-09T06:27:13.797Z,95
2016-06-09T06:28:13.769Z,100
2016-06-09T06:29:13.756Z,100
2016-06-09T06:30:13.729Z,100
2016-06-09T06:31:13.716Z,105
2016-06-09T06:32:13.687Z,110
2016-06-09T06:33:13.503Z,110
2016-06-09T06:34:13.647Z,110
2016-06-09T06:35:13.649Z,115
2016-06-09T06:36:13.607Z,120
2016-06-09T06:37:13.578Z,125
2016-06-09T06:38:13.566Z,135
2016-06-09T06:39:13.537Z,145
2016-06-09T06:40:13.525Z,145
2016-06-09T06:41:13.497Z,140
2016-06-09T06:42:13.328Z,145
2016-06-09T06:43:13.456Z,160
2016-06-09T06:44:13.428Z,160
2016-06-09T06:45:13.415Z,165
2016-06-09T06:46:13.387Z,160
2016-06-09T06:47:13.390Z,170
2016-06-09T06:48:13.347Z,200
2016-06-09T06:49:13.334Z,220
2016-06-09T06:50:13.400Z,260
2016-06-09T06:51:13.278Z,335
2016-06-09T06:52:13.264Z,500
2016-06-09T06:53:13.252Z,805
2016-06-09T06:54:13.224Z,685
2016-06-09T06:55:13.196Z,735
2016-06-09T06:56:13.183Z,895
2016-06-09T06:57:13.171Z,575
2016-06-09T06:58:13.142Z,495
2016-06-09T06:59:13.131Z,450
2016-06-09T07:00:12.790Z,410
2016-06-09T07:01:13.120Z,375
2016-06-09T07:02:13.092Z,330
2016-06-09T07:03:13.049Z,295
2016-06-09T07:04:13.036Z,270
2016-06-09T07:05:13.257Z,240
2016-06-09T07:06:13.089Z,210
2016-06-09T07:07:12.983Z,190
2016-06-09T07:08:12.955Z,160
2016-06-09T07:09:12.801Z,140
2016-06-09T07:10:12.914Z,145
2016-06-09T07:11:12.918Z,145
2016-06-09T07:12:12.732Z,145
2016-06-09T07:13:12.876Z,145
2016-06-09T07:14:12.848Z,145
2016-06-09T07:15:12.820Z,140
2016-06-09T07:16:12.635Z,140
2016-06-09T07:17:12.795Z,145
2016-06-09T07:18:12.781Z,155
2016-06-09T07:19:12.739Z,170
2016-06-09T07:20:12.913Z,170
2016-06-09T07:21:12.557Z,160
2016-06-09T07:22:12.701Z,160
2016-06-09T07:23:12.672Z,165
2016-06-09T07:24:12.660Z,175
2016-06-09T07:25:12.632Z,190
2016-06-09T07:26:12.464Z,190
2016-06-09T07:27:12.592Z,190
2016-06-09T07:28:12.407Z,190
2016-06-09T07:29:12.550Z,190
2016-06-09T07:30:12.366Z,180
2016-06-09T07:31:12.526Z,175
2016-06-09T07:32:12.341Z,170
2016-06-09T07:33:12.469Z,165
2016-06-09T07:34:12.455Z,165
2016-06-09T07:35:12.928Z,180
2016-06-09T07:36:12.291Z,200
2016-06-09T07:37:12.387Z,210
2016-06-09T07:38:12.375Z,205
2016-06-09T07:39:12.346Z,215
2016-06-09T07:40:12.334Z,210
2016-06-09T07:41:12.321Z,195
2016-06-09T07:42:12.293Z,190
2016-06-09T07:43:12.266Z,200
2016-06-09T07:44:12.252Z,210
2016-06-09T07:45:12.084Z,215
2016-06-09T07:46:12.212Z,230
2016-06-09T07:47:12.215Z,240
2016-06-09T07:48:12.031Z,235
2016-06-09T07:49:12.143Z,230
2016-06-09T07:50:12.568Z,235
2016-06-09T07:51:12.696Z,220
2016-06-09T07:52:12.091Z,200
2016-06-09T07:53:12.077Z,190
2016-06-09T07:54:12.080Z,180
2016-06-09T07:55:12.036Z,180
2016-06-09T07:56:12.024Z,180
2016-06-09T07:57:12.012Z,180
2016-06-09T07:58:11.984Z,185
2016-06-09T07:59:11.954Z,195
2016-06-09T08:00:11.943Z,205
2016-06-09T08:01:11.758Z,200
2016-06-09T08:02:11.886Z,195
2016-06-09T08:03:11.889Z,195
2016-06-09T08:04:11.861Z,190
2016-06-09T08:05:11.708Z,185
2016-06-09T08:06:11.868Z,185
2016-06-09T08:07:11.807Z,185
2016-06-09T08:08:11.780Z,190
2016-06-09T08:09:11.783Z,200
2016-06-09T08:10:11.738Z,215
2016-06-09T08:11:11.727Z,225
2016-06-09T08:12:11.698Z,235
2016-06-09T08:13:11.716Z,235
2016-06-09T08:14:11.658Z,240
2016-06-09T08:15:11.644Z,245
2016-06-09T08:16:11.476Z,255
2016-06-09T08:17:11.604Z,260
2016-06-09T08:18:11.591Z,280
2016-06-09T08:19:11.407Z,310
2016-06-09T08:20:11.411Z,325
2016-06-09T08:21:11.429Z,310
2016-06-09T08:22:11.511Z,270
2016-06-09T08:23:11.497Z,255
2016-06-09T08:24:11.470Z,275
2016-06-09T08:25:11.459Z,265
2016-06-09T08:26:11.473Z,245
2016-06-09T08:27:11.347Z,245
2016-06-09T08:28:11.533Z,270
2016-06-09T08:29:11.564Z,320
2016-06-09T08:30:11.577Z,415
2016-06-09T08:31:11.564Z,460
2016-06-09T08:32:11.567Z,390
2016-06-09T08:33:11.554Z,340
2016-06-09T08:34:11.556Z,355
2016-06-09T08:35:12.215Z,315
2016-06-09T08:36:12.427Z,315
2016-06-09T08:37:11.545Z,325
2016-06-09T08:38:11.350Z,275
2016-06-09T08:39:11.499Z,270
2016-06-09T08:40:11.507Z,305
2016-06-09T08:41:11.324Z,275
2016-06-09T08:42:11.299Z,270
2016-06-09T08:43:11.429Z,285
2016-06-09T08:44:11.418Z,300
2016-06-09T08:45:11.407Z,300
2016-06-09T08:46:11.239Z,280
2016-06-09T08:47:11.383Z,255
2016-06-09T08:48:11.200Z,250
2016-06-09T08:49:11.173Z,245
2016-06-09T08:50:12.052Z,235
2016-06-09T08:51:11.477Z,235
2016-06-09T08:52:11.292Z,235
2016-06-09T08:53:11.280Z,235
2016-06-09T08:54:11.269Z,220
2016-06-09T08:55:11.241Z,215
2016-06-09T08:56:11.213Z,195
2016-06-09T08:57:11.184Z,180
2016-06-09T08:58:11.016Z,180
2016-06-09T08:59:11.144Z,185
2016-06-09T09:00:10.990Z,195
2016-06-09T09:01:11.118Z,200
2016-06-09T09:02:11.090Z,200
2016-06-09T09:03:11.077Z,200
2016-06-09T09:04:11.064Z,195
2016-06-09T09:05:11.959Z,190
2016-06-09T09:06:11.056Z,185
2016-06-09T09:07:11.012Z,185
2016-06-09T09:08:10.827Z,190
2016-06-09T09:09:10.955Z,195
2016-06-09T09:10:10.943Z,215
2016-06-09T09:11:10.931Z,240
2016-06-09T09:12:10.918Z,265
2016-06-09T09:13:10.890Z,280
2016-06-09T09:14:10.878Z,285
2016-06-09T09:15:10.709Z,275
2016-06-09T09:16:10.836Z,270
2016-06-09T09:17:10.809Z,275
2016-06-09T09:18:10.780Z,270
2016-06-09T09:19:10.768Z,260
2016-06-09T09:20:10.911Z,260
2016-06-09T09:21:10.914Z,275
2016-06-09T09:22:10.745Z,290
2016-06-09T09:23:10.702Z,295
2016-06-09T09:24:10.689Z,295
2016-06-09T09:25:10.661Z,285
2016-06-09T09:26:10.632Z,275
2016-06-09T09:27:10.464Z,275
2016-06-09T09:28:10.608Z,280
2016-06-09T09:29:10.595Z,295
2016-06-09T09:30:10.582Z,295
2016-06-09T09:31:10.570Z,280
2016-06-09T09:32:10.525Z,295
2016-06-09T09:33:10.513Z,295
2016-06-09T09:34:10.486Z,285
2016-06-09T09:35:10.504Z,275
2016-06-09T09:36:11.554Z,270
2016-06-09T09:37:10.448Z,270
2016-06-09T09:38:10.436Z,275
2016-06-09T09:39:10.407Z,285
2016-06-09T09:40:10.379Z,290
2016-06-09T09:41:10.366Z,295
2016-06-09T09:42:10.354Z,295
2016-06-09T09:43:10.325Z,295
2016-06-09T09:44:10.298Z,300
2016-06-09T09:45:10.301Z,305
2016-06-09T09:46:10.273Z,325
2016-06-09T09:47:10.244Z,340
2016-06-09T09:48:10.231Z,350
2016-06-09T09:49:10.219Z,335
2016-06-09T09:50:10.066Z,325
2016-06-09T09:51:11.367Z,330
2016-06-09T09:52:10.167Z,330
2016-06-09T09:53:10.137Z,325
2016-06-09T09:54:10.140Z,325
2016-06-09T09:55:10.129Z,330
2016-06-09T09:56:10.100Z,345
2016-06-09T09:57:10.056Z,345
2016-06-09T09:58:09.903Z,330
2016-06-09T09:59:09.874Z,320
2016-06-09T10:00:10.019Z,320
2016-06-09T10:01:09.990Z,330
2016-06-09T10:02:09.978Z,335
2016-06-09T10:03:09.809Z,330
2016-06-09T10:04:09.953Z,310
2016-06-09T10:05:09.940Z,290
2016-06-09T10:06:10.412Z,275
2016-06-09T10:07:09.883Z,260
2016-06-09T10:08:09.871Z,255
2016-06-09T10:09:09.859Z,255
2016-06-09T10:10:09.830Z,255
2016-06-09T10:11:09.818Z,255
2016-06-09T10:12:09.806Z,250
2016-06-09T10:13:09.777Z,240
2016-06-09T10:14:09.765Z,235
2016-06-09T10:15:09.737Z,220
2016-06-09T10:16:09.724Z,215
2016-06-09T10:17:09.711Z,210
2016-06-09T10:18:09.699Z,210
2016-06-09T10:19:09.670Z,210
2016-06-09T10:20:09.642Z,205
2016-06-09T10:21:09.959Z,205
2016-06-09T10:22:09.633Z,205
2016-06-09T10:23:09.590Z,215
2016-06-09T10:24:09.593Z,210
2016-06-09T10:25:09.548Z,215
2016-06-09T10:26:09.535Z,220
2016-06-09T10:27:09.508Z,225
2016-06-09T10:28:09.511Z,240
2016-06-09T10:29:09.498Z,255
2016-06-09T10:30:09.470Z,260
2016-06-09T10:31:09.443Z,250
2016-06-09T10:32:09.429Z,245
2016-06-09T10:33:09.417Z,240
2016-06-09T10:34:09.404Z,235
2016-06-09T10:35:09.376Z,230
2016-06-09T10:36:09.395Z,220
2016-06-09T10:37:09.350Z,210
2016-06-09T10:38:09.322Z,215
2016-06-09T10:39:09.310Z,230
2016-06-09T10:40:09.298Z,240
2016-06-09T10:41:09.270Z,255
2016-06-09T10:42:09.241Z,270
2016-06-09T10:43:09.229Z,285
2016-06-09T10:44:09.216Z,295
2016-06-09T10:45:09.188Z,295
2016-06-09T10:46:09.161Z,295
2016-06-09T10:47:09.147Z,310
2016-06-09T10:48:09.150Z,345
2016-06-09T10:49:09.123Z,370
2016-06-09T10:50:09.109Z,350
2016-06-09T10:51:09.707Z,310
2016-06-09T10:52:09.491Z,280
2016-06-09T10:53:08.744Z,260
2016-06-09T10:54:09.028Z,265
2016-06-09T10:55:09.030Z,280
2016-06-09T10:56:08.847Z,295
2016-06-09T10:57:08.850Z,300
2016-06-09T10:58:08.947Z,295
2016-06-09T10:59:08.934Z,290
2016-06-09T11:00:08.922Z,280
2016-06-09T11:01:24.956Z,265
2016-06-09T11:02:12.632Z,265
2016-06-09T11:03:08.884Z,265
2016-06-09T11:04:08.872Z,275
2016-06-09T11:05:08.844Z,290
2016-06-09T11:06:09.002Z,295
2016-06-09T11:07:09.209Z,295
2016-06-09T11:08:08.790Z,295
2016-06-09T11:09:08.621Z,295
2016-06-09T11:10:08.749Z,295
2016-06-09T11:11:08.737Z,290
2016-06-09T11:12:08.724Z,290
2016-06-09T11:13:08.743Z,295
2016-06-09T11:14:08.683Z,295
2016-06-09T11:15:08.514Z,300
2016-06-09T11:16:08.642Z,295
2016-06-09T11:17:08.614Z,305
2016-06-09T11:18:08.601Z,325
2016-06-09T11:19:08.434Z,330
2016-06-09T11:20:08.561Z,340
2016-06-09T11:21:08.783Z,335
2016-06-09T11:22:08.646Z,315
2016-06-09T11:23:08.524Z,300
2016-06-09T11:24:23.308Z,295
2016-06-09T11:25:08.514Z,300
2016-06-09T11:26:08.486Z,305
2016-06-09T11:27:08.442Z,295
2016-06-09T11:28:08.274Z,275
2016-06-09T11:29:08.401Z,275
2016-06-09T11:30:08.389Z,280
2016-06-09T11:31:08.360Z,290
2016-06-09T11:32:08.660Z,295
2016-06-09T11:33:08.352Z,295
2016-06-09T11:34:08.339Z,290
2016-06-09T11:35:08.310Z,275
2016-06-09T11:36:08.892Z,255
2016-06-09T11:37:08.129Z,245
2016-06-09T11:38:08.257Z,245
2016-06-09T11:39:08.245Z,250
2016-06-09T11:40:08.216Z,250
2016-06-09T11:41:08.205Z,245
2016-06-09T11:42:08.191Z,235
2016-06-09T11:43:08.164Z,220
2016-06-09T11:44:08.167Z,205
2016-06-09T11:45:08.123Z,190
2016-06-09T11:46:08.126Z,190
2016-06-09T11:47:08.098Z,190
2016-06-09T11:48:08.085Z,190
2016-06-09T11:49:08.056Z,205
2016-06-09T11:50:08.044Z,220
2016-06-09T11:51:08.844Z,225
2016-06-09T11:52:08.894Z,225
2016-06-09T11:53:07.991Z,220
2016-06-09T11:54:07.979Z,220
2016-06-09T11:55:07.950Z,225
2016-06-09T11:56:07.923Z,225
2016-06-09T11:57:07.909Z,225
2016-06-09T11:58:07.913Z,220
2016-06-09T11:59:07.885Z,220
2016-06-09T12:00:07.871Z,225
2016-06-09T12:01:07.844Z,240
2016-06-09T12:02:07.831Z,255
2016-06-09T12:03:07.803Z,275
2016-06-09T12:04:07.806Z,285
2016-06-09T12:05:07.793Z,285
2016-06-09T12:06:08.093Z,280
2016-06-09T12:07:08.143Z,275
2016-06-09T12:08:07.740Z,275
2016-06-09T12:09:07.696Z,270
2016-06-09T12:10:07.683Z,270
2016-06-09T12:11:07.687Z,290
2016-06-09T12:12:07.658Z,315
2016-06-09T12:13:07.630Z,335
2016-06-09T12:14:07.445Z,345
2016-06-09T12:15:07.606Z,365
2016-06-09T12:16:07.593Z,390
2016-06-09T12:17:07.549Z,405
2016-06-09T12:18:07.536Z,405
2016-06-09T12:19:07.539Z,395
2016-06-09T12:20:07.511Z,365
2016-06-09T12:21:07.530Z,345
2016-06-09T12:22:08.111Z,335
2016-06-09T12:23:07.301Z,350
2016-06-09T12:24:07.290Z,380
2016-06-09T12:25:07.276Z,395
2016-06-09T12:26:07.405Z,415
2016-06-09T12:27:07.377Z,440
2016-06-09T12:28:07.363Z,460
2016-06-09T12:29:07.352Z,475
2016-06-09T12:30:07.339Z,475
2016-06-09T12:31:07.326Z,465
2016-06-09T12:32:07.329Z,475
2016-06-09T12:33:07.286Z,465
2016-06-09T12:34:07.273Z,470
2016-06-09T12:35:07.276Z,475
2016-06-09T12:36:09.061Z,465
2016-06-09T12:37:07.095Z,465
2016-06-09T12:38:07.223Z,435
2016-06-09T12:39:07.194Z,390
2016-06-09T12:40:07.166Z,360
2016-06-09T12:41:07.014Z,330
2016-06-09T12:42:07.142Z,315
2016-06-09T12:43:07.129Z,305
2016-06-09T12:44:07.116Z,305
2016-06-09T12:45:07.104Z,300
2016-06-09T12:46:06.919Z,295
2016-06-09T12:47:07.063Z,300
2016-06-09T12:48:07.050Z,325
2016-06-09T12:49:07.038Z,355
2016-06-09T12:50:06.854Z,390
2016-06-09T12:51:07.217Z,410
2016-06-09T12:52:08.359Z,420
2016-06-09T12:53:06.972Z,430
2016-06-09T12:54:06.959Z,445
2016-06-09T12:55:06.916Z,420
2016-06-09T12:56:06.918Z,370
2016-06-09T12:57:06.906Z,330
2016-06-09T12:58:06.878Z,340
2016-06-09T12:59:06.709Z,345
2016-06-09T13:00:06.853Z,330
2016-06-09T13:01:06.825Z,315
2016-06-09T13:02:06.812Z,320
2016-06-09T13:03:06.784Z,320
2016-06-09T13:04:06.802Z,330
2016-06-09T13:05:06.775Z,345
2016-06-09T13:06:07.638Z,375
2016-06-09T13:07:07.500Z,350
2016-06-09T13:08:06.722Z,340
2016-06-09T13:09:06.708Z,345
2016-06-09T13:10:06.696Z,365
2016-06-09T13:11:06.684Z,410
2016-06-09T13:12:06.484Z,425
2016-06-09T13:13:06.643Z,415
2016-06-09T13:14:06.474Z,430
2016-06-09T13:15:06.447Z,440
2016-06-09T13:16:06.589Z,455
2016-06-09T13:17:06.577Z,485
2016-06-09T13:18:06.565Z,510
2016-06-09T13:19:06.568Z,520
2016-06-09T13:20:06.524Z,510
2016-06-09T13:21:07.151Z,500
2016-06-09T13:22:06.937Z,490
2016-06-09T13:23:06.485Z,460
2016-06-09T13:24:06.457Z,470
2016-06-09T13:25:06.461Z,480
2016-06-09T13:26:06.433Z,465
2016-06-09T13:27:06.420Z,430
2016-06-09T13:28:06.408Z,445
2016-06-09T13:29:06.396Z,445
2016-06-09T13:30:06.383Z,440
2016-06-09T13:31:06.370Z,440
2016-06-09T13:32:06.342Z,425
2016-06-09T13:33:06.329Z,410
2016-06-09T13:34:06.302Z,420
2016-06-09T13:35:06.289Z,435
2016-06-09T13:36:06.636Z,450
2016-06-09T13:37:06.717Z,460
2016-06-09T13:38:06.251Z,450
2016-06-09T13:39:06.239Z,445
2016-06-09T13:40:06.054Z,445
2016-06-09T13:41:06.213Z,450
2016-06-09T13:42:06.201Z,450
2016-06-09T13:43:06.172Z,450
2016-06-09T13:44:06.160Z,450
2016-06-09T13:45:06.132Z,450
2016-06-09T13:46:06.120Z,450
2016-06-09T13:47:06.107Z,460
2016-06-09T13:48:06.095Z,465
2016-06-09T13:49:06.098Z,465
2016-06-09T13:50:05.912Z,475
2016-06-09T13:51:07.806Z,470
2016-06-09T13:52:05.747Z,465
2016-06-09T13:53:06.032Z,450
2016-06-09T13:54:06.019Z,410
2016-06-09T13:55:25.678Z,430
2016-06-09T13:56:05.978Z,435
2016-06-09T13:57:05.966Z,440
2016-06-09T13:58:05.954Z,445
2016-06-09T13:59:05.926Z,445
2016-06-09T14:00:05.913Z,450
2016-06-09T14:01:05.899Z,450
2016-06-09T14:02:05.887Z,430
2016-06-09T14:03:05.874Z,420
2016-06-09T14:04:05.862Z,420
2016-06-09T14:05:05.834Z,405
2016-06-09T14:06:05.822Z,405
2016-06-09T14:07:06.231Z,415